<?xml version="1.0" encoding="UTF-8" standalone="no" ?>
<gpx xmlns="http://www.topografix.com/GPX/1/1" xmlns:xsi="http://www.w3.org/2001/XMLSchema-instance" xsi:schemaLocation="http://www.topografix.com/GPX/1/1 http://www.topografix.com/GPX/1/1/gpx.xsd" version="1.1" creator="VisuGPX - https://www.visugpx.com">
  <metadata>
    <name>TPS 2017: la trace!</name>
    <desc><![CDATA[La traversée des pyrénées à ski édition 2017. Trace étape par étape (jour par jour).]]></desc>
  </metadata>
  <trk>
    <name><![CDATA[R7-05]]></name>
    <trkseg>
      <trkpt lat="42.80659" lon="-0.41878">
        <ele>1835.8</ele>
        <time>2017-03-24T05:18:42Z</time>
      </trkpt>
      <trkpt lat="42.8065" lon="-0.41873">
        <ele>1835.8</ele>
        <time>2017-03-24T05:19:04Z</time>
      </trkpt>
      <trkpt lat="42.8065" lon="-0.41873">
        <ele>1841.5</ele>
        <time>2017-03-24T05:19:21Z</time>
      </trkpt>
      <trkpt lat="42.8065" lon="-0.41873">
        <ele>1832.4</ele>
        <time>2017-03-24T05:19:26Z</time>
      </trkpt>
      <trkpt lat="42.8065" lon="-0.41873">
        <ele>1835.8</ele>
        <time>2017-03-24T05:19:30Z</time>
      </trkpt>
      <trkpt lat="42.80647" lon="-0.4187">
        <ele>1835.8</ele>
        <time>2017-03-24T05:19:36Z</time>
      </trkpt>
      <trkpt lat="42.8065" lon="-0.41871">
        <ele>1835.8</ele>
        <time>2017-03-24T05:20:04Z</time>
      </trkpt>
      <trkpt lat="42.80625" lon="-0.41898">
        <ele>1821.4</ele>
        <time>2017-03-24T05:20:51Z</time>
      </trkpt>
      <trkpt lat="42.80623" lon="-0.41968">
        <ele>1780</ele>
        <time>2017-03-24T05:22:31Z</time>
      </trkpt>
      <trkpt lat="42.80625" lon="-0.41965">
        <ele>1779.5</ele>
        <time>2017-03-24T05:23:05Z</time>
      </trkpt>
      <trkpt lat="42.80623" lon="-0.41964">
        <ele>1779.5</ele>
        <time>2017-03-24T05:23:37Z</time>
      </trkpt>
      <trkpt lat="42.80626" lon="-0.41969">
        <ele>1781.9</ele>
        <time>2017-03-24T05:23:59Z</time>
      </trkpt>
      <trkpt lat="42.80628" lon="-0.41968">
        <ele>1777.6</ele>
        <time>2017-03-24T05:24:11Z</time>
      </trkpt>
      <trkpt lat="42.80581" lon="-0.42016">
        <ele>1790.1</ele>
        <time>2017-03-24T05:25:33Z</time>
      </trkpt>
      <trkpt lat="42.80693" lon="-0.42332">
        <ele>1785.3</ele>
        <time>2017-03-24T05:30:10Z</time>
      </trkpt>
      <trkpt lat="42.80671" lon="-0.42315">
        <ele>1783.9</ele>
        <time>2017-03-24T05:30:23Z</time>
      </trkpt>
      <trkpt lat="42.80705" lon="-0.42344">
        <ele>1781</ele>
        <time>2017-03-24T05:30:54Z</time>
      </trkpt>
      <trkpt lat="42.80705" lon="-0.42344">
        <ele>1784.8</ele>
        <time>2017-03-24T05:30:55Z</time>
      </trkpt>
      <trkpt lat="42.80707" lon="-0.42345">
        <ele>1781.5</ele>
        <time>2017-03-24T05:31:10Z</time>
      </trkpt>
      <trkpt lat="42.80707" lon="-0.42345">
        <ele>1781.5</ele>
        <time>2017-03-24T05:31:19Z</time>
      </trkpt>
      <trkpt lat="42.80781" lon="-0.42434">
        <ele>1781.5</ele>
        <time>2017-03-24T05:32:50Z</time>
      </trkpt>
      <trkpt lat="42.8082" lon="-0.42517">
        <ele>1784.3</ele>
        <time>2017-03-24T05:34:45Z</time>
      </trkpt>
      <trkpt lat="42.80819" lon="-0.42517">
        <ele>1787.7</ele>
        <time>2017-03-24T05:35:20Z</time>
      </trkpt>
      <trkpt lat="42.8082" lon="-0.42518">
        <ele>1792</ele>
        <time>2017-03-24T05:35:47Z</time>
      </trkpt>
      <trkpt lat="42.80821" lon="-0.42517">
        <ele>1788.2</ele>
        <time>2017-03-24T05:35:55Z</time>
      </trkpt>
      <trkpt lat="42.8082" lon="-0.42517">
        <ele>1788.7</ele>
        <time>2017-03-24T05:36:00Z</time>
      </trkpt>
      <trkpt lat="42.80821" lon="-0.4252">
        <ele>1792</ele>
        <time>2017-03-24T05:36:17Z</time>
      </trkpt>
      <trkpt lat="42.80819" lon="-0.42518">
        <ele>1788.2</ele>
        <time>2017-03-24T05:36:36Z</time>
      </trkpt>
      <trkpt lat="42.81011" lon="-0.43143">
        <ele>1786.8</ele>
        <time>2017-03-24T05:45:44Z</time>
      </trkpt>
      <trkpt lat="42.81045" lon="-0.43166">
        <ele>1786.3</ele>
        <time>2017-03-24T05:46:47Z</time>
      </trkpt>
      <trkpt lat="42.81044" lon="-0.43166">
        <ele>1785.8</ele>
        <time>2017-03-24T05:46:58Z</time>
      </trkpt>
      <trkpt lat="42.81044" lon="-0.43165">
        <ele>1786.3</ele>
        <time>2017-03-24T05:47:38Z</time>
      </trkpt>
      <trkpt lat="42.81044" lon="-0.43166">
        <ele>1786.8</ele>
        <time>2017-03-24T05:47:58Z</time>
      </trkpt>
      <trkpt lat="42.81045" lon="-0.43166">
        <ele>1786.8</ele>
        <time>2017-03-24T05:48:13Z</time>
      </trkpt>
      <trkpt lat="42.81045" lon="-0.43166">
        <ele>1781.9</ele>
        <time>2017-03-24T05:48:27Z</time>
      </trkpt>
      <trkpt lat="42.81045" lon="-0.43166">
        <ele>1790.6</ele>
        <time>2017-03-24T05:48:28Z</time>
      </trkpt>
      <trkpt lat="42.81044" lon="-0.43166">
        <ele>1787.2</ele>
        <time>2017-03-24T05:48:29Z</time>
      </trkpt>
      <trkpt lat="42.81044" lon="-0.43166">
        <ele>1786.8</ele>
        <time>2017-03-24T05:48:31Z</time>
      </trkpt>
      <trkpt lat="42.81044" lon="-0.43165">
        <ele>1787.2</ele>
        <time>2017-03-24T05:49:00Z</time>
      </trkpt>
      <trkpt lat="42.81184" lon="-0.44273">
        <ele>1892</ele>
        <time>2017-03-24T06:13:12Z</time>
      </trkpt>
      <trkpt lat="42.81184" lon="-0.44272">
        <ele>1888.2</ele>
        <time>2017-03-24T06:13:15Z</time>
      </trkpt>
      <trkpt lat="42.81198" lon="-0.44304">
        <ele>1895.9</ele>
        <time>2017-03-24T06:14:40Z</time>
      </trkpt>
      <trkpt lat="42.81218" lon="-0.44284">
        <ele>1903.6</ele>
        <time>2017-03-24T06:15:39Z</time>
      </trkpt>
      <trkpt lat="42.81392" lon="-0.44699">
        <ele>1949.7</ele>
        <time>2017-03-24T06:26:02Z</time>
      </trkpt>
      <trkpt lat="42.81366" lon="-0.44739">
        <ele>1946.3</ele>
        <time>2017-03-24T06:26:56Z</time>
      </trkpt>
      <trkpt lat="42.81383" lon="-0.44719">
        <ele>1944.9</ele>
        <time>2017-03-24T06:28:06Z</time>
      </trkpt>
      <trkpt lat="42.814" lon="-0.44734">
        <ele>1940.6</ele>
        <time>2017-03-24T06:28:31Z</time>
      </trkpt>
      <trkpt lat="42.81385" lon="-0.44753">
        <ele>1935.8</ele>
        <time>2017-03-24T06:29:13Z</time>
      </trkpt>
      <trkpt lat="42.81385" lon="-0.44746">
        <ele>1935.8</ele>
        <time>2017-03-24T06:29:32Z</time>
      </trkpt>
      <trkpt lat="42.81465" lon="-0.44837">
        <ele>1921.3</ele>
        <time>2017-03-24T06:31:23Z</time>
      </trkpt>
      <trkpt lat="42.81465" lon="-0.44837">
        <ele>1920.9</ele>
        <time>2017-03-24T06:31:53Z</time>
      </trkpt>
      <trkpt lat="42.81941" lon="-0.44717">
        <ele>1974.7</ele>
        <time>2017-03-24T06:49:59Z</time>
      </trkpt>
      <trkpt lat="42.82022" lon="-0.44669">
        <ele>2001.6</ele>
        <time>2017-03-24T06:54:10Z</time>
      </trkpt>
      <trkpt lat="42.82047" lon="-0.44687">
        <ele>2008.3</ele>
        <time>2017-03-24T06:55:15Z</time>
      </trkpt>
      <trkpt lat="42.82051" lon="-0.44801">
        <ele>2032.4</ele>
        <time>2017-03-24T06:59:41Z</time>
      </trkpt>
      <trkpt lat="42.82052" lon="-0.44798">
        <ele>2027.1</ele>
        <time>2017-03-24T06:59:50Z</time>
      </trkpt>
      <trkpt lat="42.81979" lon="-0.45303">
        <ele>2082.4</ele>
        <time>2017-03-24T07:13:49Z</time>
      </trkpt>
      <trkpt lat="42.81979" lon="-0.45303">
        <ele>2082.4</ele>
        <time>2017-03-24T07:14:10Z</time>
      </trkpt>
      <trkpt lat="42.81979" lon="-0.45303">
        <ele>2081.9</ele>
        <time>2017-03-24T07:14:32Z</time>
      </trkpt>
      <trkpt lat="42.81979" lon="-0.45303">
        <ele>2081.9</ele>
        <time>2017-03-24T07:15:03Z</time>
      </trkpt>
      <trkpt lat="42.8198" lon="-0.45304">
        <ele>2081.9</ele>
        <time>2017-03-24T07:15:29Z</time>
      </trkpt>
      <trkpt lat="42.81979" lon="-0.45304">
        <ele>2081.9</ele>
        <time>2017-03-24T07:16:04Z</time>
      </trkpt>
      <trkpt lat="42.8198" lon="-0.45301">
        <ele>2081.4</ele>
        <time>2017-03-24T07:16:36Z</time>
      </trkpt>
      <trkpt lat="42.81979" lon="-0.45305">
        <ele>2082.4</ele>
        <time>2017-03-24T07:17:07Z</time>
      </trkpt>
      <trkpt lat="42.81981" lon="-0.45304">
        <ele>2081.9</ele>
        <time>2017-03-24T07:17:56Z</time>
      </trkpt>
      <trkpt lat="42.81978" lon="-0.45304">
        <ele>2081.9</ele>
        <time>2017-03-24T07:19:13Z</time>
      </trkpt>
      <trkpt lat="42.81981" lon="-0.45303">
        <ele>2081.9</ele>
        <time>2017-03-24T07:20:07Z</time>
      </trkpt>
      <trkpt lat="42.8198" lon="-0.45302">
        <ele>2081.9</ele>
        <time>2017-03-24T07:20:25Z</time>
      </trkpt>
      <trkpt lat="42.81981" lon="-0.45305">
        <ele>2081.4</ele>
        <time>2017-03-24T07:20:51Z</time>
      </trkpt>
      <trkpt lat="42.81979" lon="-0.45303">
        <ele>2080.4</ele>
        <time>2017-03-24T07:21:20Z</time>
      </trkpt>
      <trkpt lat="42.81982" lon="-0.45303">
        <ele>2080.4</ele>
        <time>2017-03-24T07:21:42Z</time>
      </trkpt>
      <trkpt lat="42.81979" lon="-0.45303">
        <ele>2080.4</ele>
        <time>2017-03-24T07:22:09Z</time>
      </trkpt>
      <trkpt lat="42.8198" lon="-0.45305">
        <ele>2080.4</ele>
        <time>2017-03-24T07:22:53Z</time>
      </trkpt>
      <trkpt lat="42.81979" lon="-0.45303">
        <ele>2079.5</ele>
        <time>2017-03-24T07:23:19Z</time>
      </trkpt>
      <trkpt lat="42.81978" lon="-0.45303">
        <ele>2080</ele>
        <time>2017-03-24T07:24:04Z</time>
      </trkpt>
      <trkpt lat="42.81978" lon="-0.45304">
        <ele>2080.4</ele>
        <time>2017-03-24T07:24:32Z</time>
      </trkpt>
      <trkpt lat="42.81978" lon="-0.45303">
        <ele>2080</ele>
        <time>2017-03-24T07:24:51Z</time>
      </trkpt>
      <trkpt lat="42.81979" lon="-0.45304">
        <ele>2080.4</ele>
        <time>2017-03-24T07:25:19Z</time>
      </trkpt>
      <trkpt lat="42.81975" lon="-0.45304">
        <ele>2080</ele>
        <time>2017-03-24T07:26:18Z</time>
      </trkpt>
      <trkpt lat="42.81977" lon="-0.45304">
        <ele>2077.6</ele>
        <time>2017-03-24T07:26:38Z</time>
      </trkpt>
      <trkpt lat="42.81977" lon="-0.45305">
        <ele>2081.4</ele>
        <time>2017-03-24T07:26:40Z</time>
      </trkpt>
      <trkpt lat="42.81977" lon="-0.45305">
        <ele>2081.4</ele>
        <time>2017-03-24T07:26:42Z</time>
      </trkpt>
      <trkpt lat="42.81977" lon="-0.45307">
        <ele>2081.4</ele>
        <time>2017-03-24T07:26:51Z</time>
      </trkpt>
      <trkpt lat="42.81977" lon="-0.45306">
        <ele>2077.1</ele>
        <time>2017-03-24T07:26:53Z</time>
      </trkpt>
      <trkpt lat="42.81977" lon="-0.45306">
        <ele>2080.9</ele>
        <time>2017-03-24T07:26:54Z</time>
      </trkpt>
      <trkpt lat="42.81977" lon="-0.45304">
        <ele>2087.2</ele>
        <time>2017-03-24T07:27:03Z</time>
      </trkpt>
      <trkpt lat="42.81977" lon="-0.45306">
        <ele>2079</ele>
        <time>2017-03-24T07:27:13Z</time>
      </trkpt>
      <trkpt lat="42.81978" lon="-0.45301">
        <ele>2073.2</ele>
        <time>2017-03-24T07:27:41Z</time>
      </trkpt>
      <trkpt lat="42.81978" lon="-0.45301">
        <ele>2077.1</ele>
        <time>2017-03-24T07:27:42Z</time>
      </trkpt>
      <trkpt lat="42.81978" lon="-0.45301">
        <ele>2096.8</ele>
        <time>2017-03-24T07:27:43Z</time>
      </trkpt>
      <trkpt lat="42.81977" lon="-0.45306">
        <ele>2079.5</ele>
        <time>2017-03-24T07:28:10Z</time>
      </trkpt>
      <trkpt lat="42.81978" lon="-0.45303">
        <ele>2095.8</ele>
        <time>2017-03-24T07:28:29Z</time>
      </trkpt>
      <trkpt lat="42.82134" lon="-0.45431">
        <ele>2027.1</ele>
        <time>2017-03-24T07:30:33Z</time>
      </trkpt>
      <trkpt lat="42.82285" lon="-0.45705">
        <ele>1973.7</ele>
        <time>2017-03-24T07:31:32Z</time>
      </trkpt>
      <trkpt lat="42.82285" lon="-0.45705">
        <ele>1972.8</ele>
        <time>2017-03-24T07:31:33Z</time>
      </trkpt>
      <trkpt lat="42.82289" lon="-0.45708">
        <ele>1972.8</ele>
        <time>2017-03-24T07:31:43Z</time>
      </trkpt>
      <trkpt lat="42.82288" lon="-0.45703">
        <ele>1972.3</ele>
        <time>2017-03-24T07:32:04Z</time>
      </trkpt>
      <trkpt lat="42.82334" lon="-0.45851">
        <ele>1924.7</ele>
        <time>2017-03-24T07:32:56Z</time>
      </trkpt>
      <trkpt lat="42.82351" lon="-0.45828">
        <ele>1919.9</ele>
        <time>2017-03-24T07:33:50Z</time>
      </trkpt>
      <trkpt lat="42.82357" lon="-0.4584">
        <ele>1919.9</ele>
        <time>2017-03-24T07:34:07Z</time>
      </trkpt>
      <trkpt lat="42.82359" lon="-0.45839">
        <ele>1916.5</ele>
        <time>2017-03-24T07:34:38Z</time>
      </trkpt>
      <trkpt lat="42.82359" lon="-0.45839">
        <ele>1920.4</ele>
        <time>2017-03-24T07:34:39Z</time>
      </trkpt>
      <trkpt lat="42.82358" lon="-0.45838">
        <ele>1918.5</ele>
        <time>2017-03-24T07:34:52Z</time>
      </trkpt>
      <trkpt lat="42.82643" lon="-0.46061">
        <ele>1823.3</ele>
        <time>2017-03-24T07:35:56Z</time>
      </trkpt>
      <trkpt lat="42.82639" lon="-0.46062">
        <ele>1823.3</ele>
        <time>2017-03-24T07:36:13Z</time>
      </trkpt>
      <trkpt lat="42.82648" lon="-0.46048">
        <ele>1819.4</ele>
        <time>2017-03-24T07:36:19Z</time>
      </trkpt>
      <trkpt lat="42.82695" lon="-0.46209">
        <ele>1795.9</ele>
        <time>2017-03-24T07:36:55Z</time>
      </trkpt>
      <trkpt lat="42.82691" lon="-0.46205">
        <ele>1795.9</ele>
        <time>2017-03-24T07:37:12Z</time>
      </trkpt>
      <trkpt lat="42.82689" lon="-0.46212">
        <ele>1794.9</ele>
        <time>2017-03-24T07:37:35Z</time>
      </trkpt>
      <trkpt lat="42.82678" lon="-0.46198">
        <ele>1795.9</ele>
        <time>2017-03-24T07:38:02Z</time>
      </trkpt>
      <trkpt lat="42.8268" lon="-0.462">
        <ele>1797.8</ele>
        <time>2017-03-24T07:38:16Z</time>
      </trkpt>
      <trkpt lat="42.82689" lon="-0.46152">
        <ele>1802.1</ele>
        <time>2017-03-24T07:41:08Z</time>
      </trkpt>
      <trkpt lat="42.82697" lon="-0.46176">
        <ele>1805</ele>
        <time>2017-03-24T07:42:12Z</time>
      </trkpt>
      <trkpt lat="42.82697" lon="-0.46176">
        <ele>1801.7</ele>
        <time>2017-03-24T07:42:13Z</time>
      </trkpt>
      <trkpt lat="42.82696" lon="-0.46176">
        <ele>1799.7</ele>
        <time>2017-03-24T07:42:16Z</time>
      </trkpt>
      <trkpt lat="42.82697" lon="-0.46177">
        <ele>1801.2</ele>
        <time>2017-03-24T07:43:51Z</time>
      </trkpt>
      <trkpt lat="42.82694" lon="-0.46174">
        <ele>1800.7</ele>
        <time>2017-03-24T07:44:14Z</time>
      </trkpt>
      <trkpt lat="42.82695" lon="-0.4618">
        <ele>1801.2</ele>
        <time>2017-03-24T07:44:38Z</time>
      </trkpt>
      <trkpt lat="42.82703" lon="-0.46169">
        <ele>1796.4</ele>
        <time>2017-03-24T07:45:00Z</time>
      </trkpt>
      <trkpt lat="42.82704" lon="-0.4617">
        <ele>1805.5</ele>
        <time>2017-03-24T07:45:01Z</time>
      </trkpt>
      <trkpt lat="42.82712" lon="-0.46161">
        <ele>1801.7</ele>
        <time>2017-03-24T07:45:24Z</time>
      </trkpt>
      <trkpt lat="42.82746" lon="-0.46255">
        <ele>1795.4</ele>
        <time>2017-03-24T07:47:03Z</time>
      </trkpt>
      <trkpt lat="42.82736" lon="-0.46247">
        <ele>1794.9</ele>
        <time>2017-03-24T07:47:49Z</time>
      </trkpt>
      <trkpt lat="42.82742" lon="-0.46254">
        <ele>1788.2</ele>
        <time>2017-03-24T07:48:18Z</time>
      </trkpt>
      <trkpt lat="42.82741" lon="-0.46253">
        <ele>1802.6</ele>
        <time>2017-03-24T07:48:19Z</time>
      </trkpt>
      <trkpt lat="42.82741" lon="-0.46257">
        <ele>1795.4</ele>
        <time>2017-03-24T07:48:22Z</time>
      </trkpt>
      <trkpt lat="42.82744" lon="-0.46254">
        <ele>1791.6</ele>
        <time>2017-03-24T07:48:52Z</time>
      </trkpt>
      <trkpt lat="42.82744" lon="-0.46255">
        <ele>1796.4</ele>
        <time>2017-03-24T07:48:54Z</time>
      </trkpt>
      <trkpt lat="42.82744" lon="-0.46253">
        <ele>1796.8</ele>
        <time>2017-03-24T07:48:56Z</time>
      </trkpt>
      <trkpt lat="42.82756" lon="-0.46257">
        <ele>1793.5</ele>
        <time>2017-03-24T07:49:12Z</time>
      </trkpt>
      <trkpt lat="42.82757" lon="-0.46257">
        <ele>1792.5</ele>
        <time>2017-03-24T07:49:14Z</time>
      </trkpt>
      <trkpt lat="42.82943" lon="-0.46801">
        <ele>1728.1</ele>
        <time>2017-03-24T07:56:39Z</time>
      </trkpt>
      <trkpt lat="42.82942" lon="-0.46802">
        <ele>1730.5</ele>
        <time>2017-03-24T07:56:44Z</time>
      </trkpt>
      <trkpt lat="42.82942" lon="-0.46801">
        <ele>1726.7</ele>
        <time>2017-03-24T07:56:46Z</time>
      </trkpt>
      <trkpt lat="42.82942" lon="-0.46807">
        <ele>1727.2</ele>
        <time>2017-03-24T07:57:53Z</time>
      </trkpt>
      <trkpt lat="42.82942" lon="-0.46805">
        <ele>1727.6</ele>
        <time>2017-03-24T07:58:14Z</time>
      </trkpt>
      <trkpt lat="42.82938" lon="-0.46805">
        <ele>1728.6</ele>
        <time>2017-03-24T07:59:01Z</time>
      </trkpt>
      <trkpt lat="42.82938" lon="-0.46807">
        <ele>1729.1</ele>
        <time>2017-03-24T07:59:18Z</time>
      </trkpt>
      <trkpt lat="42.82936" lon="-0.46805">
        <ele>1722.8</ele>
        <time>2017-03-24T07:59:46Z</time>
      </trkpt>
      <trkpt lat="42.82944" lon="-0.468">
        <ele>1730</ele>
        <time>2017-03-24T08:00:14Z</time>
      </trkpt>
      <trkpt lat="42.82937" lon="-0.468">
        <ele>1728.6</ele>
        <time>2017-03-24T08:00:35Z</time>
      </trkpt>
      <trkpt lat="42.82936" lon="-0.46796">
        <ele>1729.6</ele>
        <time>2017-03-24T08:01:11Z</time>
      </trkpt>
      <trkpt lat="42.82935" lon="-0.46801">
        <ele>1729.6</ele>
        <time>2017-03-24T08:01:39Z</time>
      </trkpt>
      <trkpt lat="42.82938" lon="-0.468">
        <ele>1730.5</ele>
        <time>2017-03-24T08:02:11Z</time>
      </trkpt>
      <trkpt lat="42.82941" lon="-0.46807">
        <ele>1730</ele>
        <time>2017-03-24T08:02:36Z</time>
      </trkpt>
      <trkpt lat="42.82945" lon="-0.46806">
        <ele>1730.5</ele>
        <time>2017-03-24T08:03:07Z</time>
      </trkpt>
      <trkpt lat="42.82936" lon="-0.46794">
        <ele>1730</ele>
        <time>2017-03-24T08:04:43Z</time>
      </trkpt>
      <trkpt lat="42.8294" lon="-0.46797">
        <ele>1731</ele>
        <time>2017-03-24T08:05:03Z</time>
      </trkpt>
      <trkpt lat="42.82934" lon="-0.46798">
        <ele>1730.5</ele>
        <time>2017-03-24T08:05:31Z</time>
      </trkpt>
      <trkpt lat="42.82945" lon="-0.468">
        <ele>1730.5</ele>
        <time>2017-03-24T08:06:45Z</time>
      </trkpt>
      <trkpt lat="42.82939" lon="-0.46792">
        <ele>1731</ele>
        <time>2017-03-24T08:07:33Z</time>
      </trkpt>
      <trkpt lat="42.82942" lon="-0.468">
        <ele>1731.5</ele>
        <time>2017-03-24T08:07:58Z</time>
      </trkpt>
      <trkpt lat="42.82934" lon="-0.46801">
        <ele>1731</ele>
        <time>2017-03-24T08:08:20Z</time>
      </trkpt>
      <trkpt lat="42.82938" lon="-0.46807">
        <ele>1730.5</ele>
        <time>2017-03-24T08:08:32Z</time>
      </trkpt>
      <trkpt lat="42.82937" lon="-0.46806">
        <ele>1730.5</ele>
        <time>2017-03-24T08:08:45Z</time>
      </trkpt>
      <trkpt lat="42.82943" lon="-0.46803">
        <ele>1729.6</ele>
        <time>2017-03-24T08:08:58Z</time>
      </trkpt>
      <trkpt lat="42.8294" lon="-0.468">
        <ele>1729.1</ele>
        <time>2017-03-24T08:09:20Z</time>
      </trkpt>
      <trkpt lat="42.82944" lon="-0.46801">
        <ele>1729.6</ele>
        <time>2017-03-24T08:10:11Z</time>
      </trkpt>
      <trkpt lat="42.82937" lon="-0.468">
        <ele>1729.6</ele>
        <time>2017-03-24T08:10:42Z</time>
      </trkpt>
      <trkpt lat="42.82945" lon="-0.46804">
        <ele>1726.7</ele>
        <time>2017-03-24T08:11:36Z</time>
      </trkpt>
      <trkpt lat="42.82944" lon="-0.46803">
        <ele>1729.6</ele>
        <time>2017-03-24T08:11:39Z</time>
      </trkpt>
      <trkpt lat="42.82944" lon="-0.46803">
        <ele>1729.1</ele>
        <time>2017-03-24T08:11:41Z</time>
      </trkpt>
      <trkpt lat="42.82943" lon="-0.46803">
        <ele>1729.6</ele>
        <time>2017-03-24T08:12:06Z</time>
      </trkpt>
      <trkpt lat="42.82944" lon="-0.46799">
        <ele>1730</ele>
        <time>2017-03-24T08:12:47Z</time>
      </trkpt>
      <trkpt lat="42.8301" lon="-0.4689">
        <ele>1724.7</ele>
        <time>2017-03-24T08:14:37Z</time>
      </trkpt>
      <trkpt lat="42.83007" lon="-0.46891">
        <ele>1725.2</ele>
        <time>2017-03-24T08:15:12Z</time>
      </trkpt>
      <trkpt lat="42.8301" lon="-0.4689">
        <ele>1724.3</ele>
        <time>2017-03-24T08:15:35Z</time>
      </trkpt>
      <trkpt lat="42.83011" lon="-0.46892">
        <ele>1724.3</ele>
        <time>2017-03-24T08:16:03Z</time>
      </trkpt>
      <trkpt lat="42.83007" lon="-0.46889">
        <ele>1724.3</ele>
        <time>2017-03-24T08:16:22Z</time>
      </trkpt>
      <trkpt lat="42.83013" lon="-0.4689">
        <ele>1724.3</ele>
        <time>2017-03-24T08:17:10Z</time>
      </trkpt>
      <trkpt lat="42.83008" lon="-0.46886">
        <ele>1725.2</ele>
        <time>2017-03-24T08:17:45Z</time>
      </trkpt>
      <trkpt lat="42.83008" lon="-0.46886">
        <ele>1725.7</ele>
        <time>2017-03-24T08:18:05Z</time>
      </trkpt>
      <trkpt lat="42.83009" lon="-0.46889">
        <ele>1725.2</ele>
        <time>2017-03-24T08:18:33Z</time>
      </trkpt>
      <trkpt lat="42.83008" lon="-0.46887">
        <ele>1725.7</ele>
        <time>2017-03-24T08:18:55Z</time>
      </trkpt>
      <trkpt lat="42.83009" lon="-0.46888">
        <ele>1725.2</ele>
        <time>2017-03-24T08:19:24Z</time>
      </trkpt>
      <trkpt lat="42.83011" lon="-0.46886">
        <ele>1725.7</ele>
        <time>2017-03-24T08:19:40Z</time>
      </trkpt>
      <trkpt lat="42.83008" lon="-0.46891">
        <ele>1725.2</ele>
        <time>2017-03-24T08:20:00Z</time>
      </trkpt>
      <trkpt lat="42.83009" lon="-0.46887">
        <ele>1725.2</ele>
        <time>2017-03-24T08:20:21Z</time>
      </trkpt>
      <trkpt lat="42.83005" lon="-0.46886">
        <ele>1725.7</ele>
        <time>2017-03-24T08:20:47Z</time>
      </trkpt>
      <trkpt lat="42.83009" lon="-0.46892">
        <ele>1724.7</ele>
        <time>2017-03-24T08:21:14Z</time>
      </trkpt>
      <trkpt lat="42.83009" lon="-0.46889">
        <ele>1724.7</ele>
        <time>2017-03-24T08:21:58Z</time>
      </trkpt>
      <trkpt lat="42.8301" lon="-0.46891">
        <ele>1723.8</ele>
        <time>2017-03-24T08:22:26Z</time>
      </trkpt>
      <trkpt lat="42.82964" lon="-0.47345">
        <ele>1772.8</ele>
        <time>2017-03-24T08:30:39Z</time>
      </trkpt>
      <trkpt lat="42.82961" lon="-0.47344">
        <ele>1775.2</ele>
        <time>2017-03-24T08:30:53Z</time>
      </trkpt>
      <trkpt lat="42.82962" lon="-0.4736">
        <ele>1777.1</ele>
        <time>2017-03-24T08:31:12Z</time>
      </trkpt>
      <trkpt lat="42.82958" lon="-0.4736">
        <ele>1777.1</ele>
        <time>2017-03-24T08:31:37Z</time>
      </trkpt>
      <trkpt lat="42.82962" lon="-0.47359">
        <ele>1776.7</ele>
        <time>2017-03-24T08:33:31Z</time>
      </trkpt>
      <trkpt lat="42.82959" lon="-0.47363">
        <ele>1776.2</ele>
        <time>2017-03-24T08:34:38Z</time>
      </trkpt>
      <trkpt lat="42.82965" lon="-0.47358">
        <ele>1777.1</ele>
        <time>2017-03-24T08:35:34Z</time>
      </trkpt>
      <trkpt lat="42.8296" lon="-0.47362">
        <ele>1777.1</ele>
        <time>2017-03-24T08:36:23Z</time>
      </trkpt>
      <trkpt lat="42.82961" lon="-0.47361">
        <ele>1776.7</ele>
        <time>2017-03-24T08:36:50Z</time>
      </trkpt>
      <trkpt lat="42.8293" lon="-0.47514">
        <ele>1795.4</ele>
        <time>2017-03-24T08:41:01Z</time>
      </trkpt>
      <trkpt lat="42.82924" lon="-0.47504">
        <ele>1795.9</ele>
        <time>2017-03-24T08:41:51Z</time>
      </trkpt>
      <trkpt lat="42.82923" lon="-0.47505">
        <ele>1796.4</ele>
        <time>2017-03-24T08:42:15Z</time>
      </trkpt>
      <trkpt lat="42.82922" lon="-0.47503">
        <ele>1796.4</ele>
        <time>2017-03-24T08:42:45Z</time>
      </trkpt>
      <trkpt lat="42.82856" lon="-0.4792">
        <ele>1840.6</ele>
        <time>2017-03-24T08:54:14Z</time>
      </trkpt>
      <trkpt lat="42.82846" lon="-0.47922">
        <ele>1842</ele>
        <time>2017-03-24T08:55:21Z</time>
      </trkpt>
      <trkpt lat="42.82849" lon="-0.47909">
        <ele>1842.5</ele>
        <time>2017-03-24T08:55:51Z</time>
      </trkpt>
      <trkpt lat="42.82821" lon="-0.48022">
        <ele>1850.7</ele>
        <time>2017-03-24T08:58:08Z</time>
      </trkpt>
      <trkpt lat="42.8282" lon="-0.4802">
        <ele>1850.7</ele>
        <time>2017-03-24T08:58:39Z</time>
      </trkpt>
      <trkpt lat="42.82656" lon="-0.48411">
        <ele>1865.1</ele>
        <time>2017-03-24T09:07:48Z</time>
      </trkpt>
      <trkpt lat="42.82656" lon="-0.48412">
        <ele>1890.6</ele>
        <time>2017-03-24T09:07:50Z</time>
      </trkpt>
      <trkpt lat="42.82656" lon="-0.48412">
        <ele>1882.9</ele>
        <time>2017-03-24T09:07:51Z</time>
      </trkpt>
      <trkpt lat="42.82504" lon="-0.4883">
        <ele>1976.6</ele>
        <time>2017-03-24T09:21:18Z</time>
      </trkpt>
      <trkpt lat="42.82507" lon="-0.48819">
        <ele>1976.6</ele>
        <time>2017-03-24T09:21:36Z</time>
      </trkpt>
      <trkpt lat="42.82504" lon="-0.48825">
        <ele>1977.1</ele>
        <time>2017-03-24T09:22:00Z</time>
      </trkpt>
      <trkpt lat="42.82509" lon="-0.48822">
        <ele>1976.6</ele>
        <time>2017-03-24T09:22:19Z</time>
      </trkpt>
      <trkpt lat="42.82504" lon="-0.48827">
        <ele>1974.2</ele>
        <time>2017-03-24T09:22:46Z</time>
      </trkpt>
      <trkpt lat="42.82505" lon="-0.48826">
        <ele>1976.6</ele>
        <time>2017-03-24T09:22:49Z</time>
      </trkpt>
      <trkpt lat="42.82503" lon="-0.48829">
        <ele>1976.6</ele>
        <time>2017-03-24T09:23:14Z</time>
      </trkpt>
      <trkpt lat="42.82507" lon="-0.48826">
        <ele>1976.1</ele>
        <time>2017-03-24T09:23:40Z</time>
      </trkpt>
      <trkpt lat="42.825" lon="-0.48824">
        <ele>1976.1</ele>
        <time>2017-03-24T09:24:39Z</time>
      </trkpt>
      <trkpt lat="42.82502" lon="-0.48824">
        <ele>1976.1</ele>
        <time>2017-03-24T09:25:16Z</time>
      </trkpt>
      <trkpt lat="42.82502" lon="-0.48824">
        <ele>1976.1</ele>
        <time>2017-03-24T09:25:31Z</time>
      </trkpt>
      <trkpt lat="42.82504" lon="-0.48824">
        <ele>1974.7</ele>
        <time>2017-03-24T09:25:38Z</time>
      </trkpt>
      <trkpt lat="42.82504" lon="-0.48824">
        <ele>1976.1</ele>
        <time>2017-03-24T09:26:09Z</time>
      </trkpt>
      <trkpt lat="42.82505" lon="-0.48824">
        <ele>1977.1</ele>
        <time>2017-03-24T09:26:38Z</time>
      </trkpt>
      <trkpt lat="42.82504" lon="-0.48825">
        <ele>1975.7</ele>
        <time>2017-03-24T09:27:05Z</time>
      </trkpt>
      <trkpt lat="42.82509" lon="-0.48825">
        <ele>1975.7</ele>
        <time>2017-03-24T09:27:35Z</time>
      </trkpt>
      <trkpt lat="42.82506" lon="-0.48829">
        <ele>1976.6</ele>
        <time>2017-03-24T09:28:07Z</time>
      </trkpt>
      <trkpt lat="42.8251" lon="-0.48828">
        <ele>1975.2</ele>
        <time>2017-03-24T09:28:30Z</time>
      </trkpt>
      <trkpt lat="42.82508" lon="-0.48825">
        <ele>1973.7</ele>
        <time>2017-03-24T09:28:56Z</time>
      </trkpt>
      <trkpt lat="42.82509" lon="-0.48825">
        <ele>1975.7</ele>
        <time>2017-03-24T09:28:58Z</time>
      </trkpt>
      <trkpt lat="42.82511" lon="-0.48827">
        <ele>1975.2</ele>
        <time>2017-03-24T09:29:32Z</time>
      </trkpt>
      <trkpt lat="42.82508" lon="-0.48825">
        <ele>1976.1</ele>
        <time>2017-03-24T09:29:57Z</time>
      </trkpt>
      <trkpt lat="42.82513" lon="-0.48827">
        <ele>1976.1</ele>
        <time>2017-03-24T09:31:25Z</time>
      </trkpt>
      <trkpt lat="42.82507" lon="-0.48831">
        <ele>1975.7</ele>
        <time>2017-03-24T09:33:07Z</time>
      </trkpt>
      <trkpt lat="42.8251" lon="-0.48829">
        <ele>1977.1</ele>
        <time>2017-03-24T09:33:33Z</time>
      </trkpt>
      <trkpt lat="42.82511" lon="-0.48829">
        <ele>1977.1</ele>
        <time>2017-03-24T09:34:02Z</time>
      </trkpt>
      <trkpt lat="42.82517" lon="-0.48825">
        <ele>1975.2</ele>
        <time>2017-03-24T09:34:39Z</time>
      </trkpt>
      <trkpt lat="42.82508" lon="-0.4883">
        <ele>1976.6</ele>
        <time>2017-03-24T09:35:36Z</time>
      </trkpt>
      <trkpt lat="42.82508" lon="-0.48822">
        <ele>1976.6</ele>
        <time>2017-03-24T09:37:16Z</time>
      </trkpt>
      <trkpt lat="42.82513" lon="-0.48824">
        <ele>1977.1</ele>
        <time>2017-03-24T09:37:52Z</time>
      </trkpt>
      <trkpt lat="42.82508" lon="-0.48826">
        <ele>1976.6</ele>
        <time>2017-03-24T09:38:23Z</time>
      </trkpt>
      <trkpt lat="42.82509" lon="-0.48825">
        <ele>1976.6</ele>
        <time>2017-03-24T09:38:58Z</time>
      </trkpt>
      <trkpt lat="42.8246" lon="-0.48926">
        <ele>2001.1</ele>
        <time>2017-03-24T09:42:13Z</time>
      </trkpt>
      <trkpt lat="42.82442" lon="-0.4894">
        <ele>2006.4</ele>
        <time>2017-03-24T09:42:47Z</time>
      </trkpt>
      <trkpt lat="42.82475" lon="-0.49207">
        <ele>2070.8</ele>
        <time>2017-03-24T09:51:51Z</time>
      </trkpt>
      <trkpt lat="42.82479" lon="-0.49336">
        <ele>2097.7</ele>
        <time>2017-03-24T09:56:30Z</time>
      </trkpt>
      <trkpt lat="42.82475" lon="-0.49334">
        <ele>2096.8</ele>
        <time>2017-03-24T09:56:57Z</time>
      </trkpt>
      <trkpt lat="42.82466" lon="-0.4949">
        <ele>2099.7</ele>
        <time>2017-03-24T10:00:46Z</time>
      </trkpt>
      <trkpt lat="42.82467" lon="-0.49486">
        <ele>2099.7</ele>
        <time>2017-03-24T10:01:17Z</time>
      </trkpt>
      <trkpt lat="42.82485" lon="-0.49617">
        <ele>2118.4</ele>
        <time>2017-03-24T10:05:02Z</time>
      </trkpt>
      <trkpt lat="42.82483" lon="-0.49617">
        <ele>2117.9</ele>
        <time>2017-03-24T10:05:24Z</time>
      </trkpt>
      <trkpt lat="42.82484" lon="-0.49617">
        <ele>2117</ele>
        <time>2017-03-24T10:05:28Z</time>
      </trkpt>
      <trkpt lat="42.82484" lon="-0.49617">
        <ele>2119.4</ele>
        <time>2017-03-24T10:05:30Z</time>
      </trkpt>
      <trkpt lat="42.82484" lon="-0.49617">
        <ele>2117.9</ele>
        <time>2017-03-24T10:05:32Z</time>
      </trkpt>
      <trkpt lat="42.82482" lon="-0.49617">
        <ele>2117.9</ele>
        <time>2017-03-24T10:05:45Z</time>
      </trkpt>
      <trkpt lat="42.82489" lon="-0.49615">
        <ele>2117.4</ele>
        <time>2017-03-24T10:07:15Z</time>
      </trkpt>
      <trkpt lat="42.82448" lon="-0.49663">
        <ele>2124.2</ele>
        <time>2017-03-24T10:09:13Z</time>
      </trkpt>
      <trkpt lat="42.8244" lon="-0.49928">
        <ele>2172.7</ele>
        <time>2017-03-24T10:17:05Z</time>
      </trkpt>
      <trkpt lat="42.82444" lon="-0.4993">
        <ele>2176.1</ele>
        <time>2017-03-24T10:17:39Z</time>
      </trkpt>
      <trkpt lat="42.82442" lon="-0.49929">
        <ele>2169.8</ele>
        <time>2017-03-24T10:18:06Z</time>
      </trkpt>
      <trkpt lat="42.82461" lon="-0.50014">
        <ele>2154</ele>
        <time>2017-03-24T10:20:49Z</time>
      </trkpt>
      <trkpt lat="42.8246" lon="-0.50013">
        <ele>2155.4</ele>
        <time>2017-03-24T10:20:52Z</time>
      </trkpt>
      <trkpt lat="42.82461" lon="-0.50013">
        <ele>2154</ele>
        <time>2017-03-24T10:20:54Z</time>
      </trkpt>
      <trkpt lat="42.82461" lon="-0.50015">
        <ele>2155.9</ele>
        <time>2017-03-24T10:21:39Z</time>
      </trkpt>
      <trkpt lat="42.8246" lon="-0.50012">
        <ele>2153.5</ele>
        <time>2017-03-24T10:22:49Z</time>
      </trkpt>
      <trkpt lat="42.82461" lon="-0.50013">
        <ele>2153</ele>
        <time>2017-03-24T10:23:08Z</time>
      </trkpt>
      <trkpt lat="42.8246" lon="-0.50012">
        <ele>2153.5</ele>
        <time>2017-03-24T10:23:28Z</time>
      </trkpt>
      <trkpt lat="42.8246" lon="-0.50015">
        <ele>2153.5</ele>
        <time>2017-03-24T10:24:20Z</time>
      </trkpt>
      <trkpt lat="42.82463" lon="-0.50015">
        <ele>2153.5</ele>
        <time>2017-03-24T10:25:09Z</time>
      </trkpt>
      <trkpt lat="42.82463" lon="-0.50016">
        <ele>2152.5</ele>
        <time>2017-03-24T10:25:34Z</time>
      </trkpt>
      <trkpt lat="42.8246" lon="-0.50015">
        <ele>2152.5</ele>
        <time>2017-03-24T10:26:30Z</time>
      </trkpt>
      <trkpt lat="42.82461" lon="-0.50014">
        <ele>2153</ele>
        <time>2017-03-24T10:26:58Z</time>
      </trkpt>
      <trkpt lat="42.8246" lon="-0.50014">
        <ele>2152.5</ele>
        <time>2017-03-24T10:27:20Z</time>
      </trkpt>
      <trkpt lat="42.8246" lon="-0.50012">
        <ele>2153</ele>
        <time>2017-03-24T10:27:45Z</time>
      </trkpt>
      <trkpt lat="42.82462" lon="-0.50016">
        <ele>2153.5</ele>
        <time>2017-03-24T10:28:38Z</time>
      </trkpt>
      <trkpt lat="42.8246" lon="-0.50014">
        <ele>2153.5</ele>
        <time>2017-03-24T10:29:02Z</time>
      </trkpt>
      <trkpt lat="42.82462" lon="-0.50014">
        <ele>2154.9</ele>
        <time>2017-03-24T10:29:28Z</time>
      </trkpt>
      <trkpt lat="42.82463" lon="-0.5001">
        <ele>2154.5</ele>
        <time>2017-03-24T10:29:51Z</time>
      </trkpt>
      <trkpt lat="42.82459" lon="-0.50014">
        <ele>2154</ele>
        <time>2017-03-24T10:30:25Z</time>
      </trkpt>
      <trkpt lat="42.82459" lon="-0.50012">
        <ele>2154</ele>
        <time>2017-03-24T10:30:49Z</time>
      </trkpt>
      <trkpt lat="42.8246" lon="-0.50014">
        <ele>2152.5</ele>
        <time>2017-03-24T10:31:23Z</time>
      </trkpt>
      <trkpt lat="42.82458" lon="-0.50013">
        <ele>2153</ele>
        <time>2017-03-24T10:31:47Z</time>
      </trkpt>
      <trkpt lat="42.8246" lon="-0.50014">
        <ele>2154.5</ele>
        <time>2017-03-24T10:31:58Z</time>
      </trkpt>
      <trkpt lat="42.82458" lon="-0.50015">
        <ele>2152.1</ele>
        <time>2017-03-24T10:32:30Z</time>
      </trkpt>
      <trkpt lat="42.82459" lon="-0.50011">
        <ele>2152.5</ele>
        <time>2017-03-24T10:33:18Z</time>
      </trkpt>
      <trkpt lat="42.8246" lon="-0.50014">
        <ele>2152.5</ele>
        <time>2017-03-24T10:33:52Z</time>
      </trkpt>
      <trkpt lat="42.82461" lon="-0.50012">
        <ele>2152.1</ele>
        <time>2017-03-24T10:34:16Z</time>
      </trkpt>
      <trkpt lat="42.82444" lon="-0.50095">
        <ele>2144.4</ele>
        <time>2017-03-24T10:35:11Z</time>
      </trkpt>
      <trkpt lat="42.82462" lon="-0.50246">
        <ele>2116</ele>
        <time>2017-03-24T10:35:40Z</time>
      </trkpt>
      <trkpt lat="42.82464" lon="-0.50245">
        <ele>2115.5</ele>
        <time>2017-03-24T10:35:41Z</time>
      </trkpt>
      <trkpt lat="42.82488" lon="-0.5029">
        <ele>2106.9</ele>
        <time>2017-03-24T10:35:47Z</time>
      </trkpt>
      <trkpt lat="42.82387" lon="-0.50518">
        <ele>2075.1</ele>
        <time>2017-03-24T10:36:41Z</time>
      </trkpt>
      <trkpt lat="42.82387" lon="-0.50511">
        <ele>2077.6</ele>
        <time>2017-03-24T10:37:15Z</time>
      </trkpt>
      <trkpt lat="42.82385" lon="-0.50512">
        <ele>2074.2</ele>
        <time>2017-03-24T10:37:19Z</time>
      </trkpt>
      <trkpt lat="42.82386" lon="-0.5051">
        <ele>2074.2</ele>
        <time>2017-03-24T10:37:46Z</time>
      </trkpt>
      <trkpt lat="42.82388" lon="-0.50515">
        <ele>2074.2</ele>
        <time>2017-03-24T10:38:09Z</time>
      </trkpt>
      <trkpt lat="42.8239" lon="-0.50509">
        <ele>2073.7</ele>
        <time>2017-03-24T10:40:09Z</time>
      </trkpt>
      <trkpt lat="42.82387" lon="-0.50509">
        <ele>2075.6</ele>
        <time>2017-03-24T10:41:25Z</time>
      </trkpt>
      <trkpt lat="42.82387" lon="-0.50509">
        <ele>2076.1</ele>
        <time>2017-03-24T10:41:51Z</time>
      </trkpt>
      <trkpt lat="42.82386" lon="-0.50511">
        <ele>2074.7</ele>
        <time>2017-03-24T10:42:17Z</time>
      </trkpt>
      <trkpt lat="42.82385" lon="-0.50508">
        <ele>2074.2</ele>
        <time>2017-03-24T10:42:47Z</time>
      </trkpt>
      <trkpt lat="42.82389" lon="-0.50513">
        <ele>2074.7</ele>
        <time>2017-03-24T10:44:28Z</time>
      </trkpt>
      <trkpt lat="42.82386" lon="-0.50511">
        <ele>2074.2</ele>
        <time>2017-03-24T10:45:18Z</time>
      </trkpt>
      <trkpt lat="42.82389" lon="-0.50511">
        <ele>2074.7</ele>
        <time>2017-03-24T10:46:14Z</time>
      </trkpt>
      <trkpt lat="42.82386" lon="-0.50511">
        <ele>2074.7</ele>
        <time>2017-03-24T10:47:10Z</time>
      </trkpt>
      <trkpt lat="42.82391" lon="-0.50511">
        <ele>2074.7</ele>
        <time>2017-03-24T10:48:16Z</time>
      </trkpt>
      <trkpt lat="42.82387" lon="-0.50509">
        <ele>2074.7</ele>
        <time>2017-03-24T10:49:52Z</time>
      </trkpt>
      <trkpt lat="42.8239" lon="-0.50512">
        <ele>2074.7</ele>
        <time>2017-03-24T10:50:27Z</time>
      </trkpt>
      <trkpt lat="42.82386" lon="-0.50508">
        <ele>2074.2</ele>
        <time>2017-03-24T10:51:20Z</time>
      </trkpt>
      <trkpt lat="42.82388" lon="-0.50511">
        <ele>2074.2</ele>
        <time>2017-03-24T10:51:44Z</time>
      </trkpt>
      <trkpt lat="42.82386" lon="-0.5051">
        <ele>2074.7</ele>
        <time>2017-03-24T10:52:12Z</time>
      </trkpt>
      <trkpt lat="42.82388" lon="-0.5051">
        <ele>2074.7</ele>
        <time>2017-03-24T10:52:43Z</time>
      </trkpt>
      <trkpt lat="42.82386" lon="-0.5051">
        <ele>2074.2</ele>
        <time>2017-03-24T10:53:11Z</time>
      </trkpt>
      <trkpt lat="42.82388" lon="-0.5051">
        <ele>2074.2</ele>
        <time>2017-03-24T10:53:39Z</time>
      </trkpt>
      <trkpt lat="42.82389" lon="-0.50514">
        <ele>2074.2</ele>
        <time>2017-03-24T10:55:19Z</time>
      </trkpt>
      <trkpt lat="42.82385" lon="-0.50508">
        <ele>2073.7</ele>
        <time>2017-03-24T10:56:13Z</time>
      </trkpt>
      <trkpt lat="42.82385" lon="-0.50509">
        <ele>2074.2</ele>
        <time>2017-03-24T10:56:45Z</time>
      </trkpt>
      <trkpt lat="42.82386" lon="-0.50509">
        <ele>2074.2</ele>
        <time>2017-03-24T10:57:11Z</time>
      </trkpt>
      <trkpt lat="42.82385" lon="-0.5051">
        <ele>2074.2</ele>
        <time>2017-03-24T10:57:36Z</time>
      </trkpt>
      <trkpt lat="42.82389" lon="-0.50512">
        <ele>2074.2</ele>
        <time>2017-03-24T10:58:21Z</time>
      </trkpt>
      <trkpt lat="42.82387" lon="-0.50507">
        <ele>2070.8</ele>
        <time>2017-03-24T10:59:26Z</time>
      </trkpt>
      <trkpt lat="42.82387" lon="-0.50508">
        <ele>2078</ele>
        <time>2017-03-24T10:59:27Z</time>
      </trkpt>
      <trkpt lat="42.82387" lon="-0.50508">
        <ele>2082.8</ele>
        <time>2017-03-24T10:59:28Z</time>
      </trkpt>
      <trkpt lat="42.82387" lon="-0.50508">
        <ele>2075.1</ele>
        <time>2017-03-24T10:59:29Z</time>
      </trkpt>
      <trkpt lat="42.82387" lon="-0.50507">
        <ele>2074.2</ele>
        <time>2017-03-24T10:59:31Z</time>
      </trkpt>
      <trkpt lat="42.82392" lon="-0.50572">
        <ele>2074.7</ele>
        <time>2017-03-24T11:00:19Z</time>
      </trkpt>
      <trkpt lat="42.82232" lon="-0.51144">
        <ele>2201.1</ele>
        <time>2017-03-24T11:22:20Z</time>
      </trkpt>
      <trkpt lat="42.82232" lon="-0.51144">
        <ele>2200.1</ele>
        <time>2017-03-24T11:22:49Z</time>
      </trkpt>
      <trkpt lat="42.82231" lon="-0.51144">
        <ele>2198.7</ele>
        <time>2017-03-24T11:23:11Z</time>
      </trkpt>
      <trkpt lat="42.82228" lon="-0.5115">
        <ele>2215.5</ele>
        <time>2017-03-24T11:24:04Z</time>
      </trkpt>
      <trkpt lat="42.82231" lon="-0.51143">
        <ele>2200.1</ele>
        <time>2017-03-24T11:24:32Z</time>
      </trkpt>
      <trkpt lat="42.8223" lon="-0.51143">
        <ele>2201.1</ele>
        <time>2017-03-24T11:25:08Z</time>
      </trkpt>
      <trkpt lat="42.82231" lon="-0.51143">
        <ele>2200.6</ele>
        <time>2017-03-24T11:25:29Z</time>
      </trkpt>
      <trkpt lat="42.82208" lon="-0.51138">
        <ele>2205.9</ele>
        <time>2017-03-24T11:26:53Z</time>
      </trkpt>
      <trkpt lat="42.82157" lon="-0.51223">
        <ele>2257.3</ele>
        <time>2017-03-24T11:37:57Z</time>
      </trkpt>
      <trkpt lat="42.82157" lon="-0.51222">
        <ele>2258.8</ele>
        <time>2017-03-24T11:38:33Z</time>
      </trkpt>
      <trkpt lat="42.82175" lon="-0.51246">
        <ele>2265</ele>
        <time>2017-03-24T11:40:11Z</time>
      </trkpt>
      <trkpt lat="42.82146" lon="-0.51318">
        <ele>2293.8</ele>
        <time>2017-03-24T11:45:09Z</time>
      </trkpt>
      <trkpt lat="42.82125" lon="-0.51313">
        <ele>2296.7</ele>
        <time>2017-03-24T11:46:58Z</time>
      </trkpt>
      <trkpt lat="42.82127" lon="-0.51311">
        <ele>2296.7</ele>
        <time>2017-03-24T11:47:54Z</time>
      </trkpt>
      <trkpt lat="42.82126" lon="-0.51311">
        <ele>2297.2</ele>
        <time>2017-03-24T11:48:26Z</time>
      </trkpt>
      <trkpt lat="42.82126" lon="-0.5131">
        <ele>2296.7</ele>
        <time>2017-03-24T11:49:06Z</time>
      </trkpt>
      <trkpt lat="42.82123" lon="-0.51309">
        <ele>2296.3</ele>
        <time>2017-03-24T11:50:04Z</time>
      </trkpt>
      <trkpt lat="42.82123" lon="-0.51308">
        <ele>2295.8</ele>
        <time>2017-03-24T11:50:31Z</time>
      </trkpt>
      <trkpt lat="42.82123" lon="-0.5131">
        <ele>2295.8</ele>
        <time>2017-03-24T11:51:05Z</time>
      </trkpt>
      <trkpt lat="42.82127" lon="-0.5131">
        <ele>2295.8</ele>
        <time>2017-03-24T11:52:29Z</time>
      </trkpt>
      <trkpt lat="42.82126" lon="-0.51311">
        <ele>2295.8</ele>
        <time>2017-03-24T11:52:48Z</time>
      </trkpt>
      <trkpt lat="42.82126" lon="-0.51311">
        <ele>2296.3</ele>
        <time>2017-03-24T11:53:09Z</time>
      </trkpt>
      <trkpt lat="42.82125" lon="-0.51312">
        <ele>2296.3</ele>
        <time>2017-03-24T11:53:46Z</time>
      </trkpt>
      <trkpt lat="42.82126" lon="-0.51311">
        <ele>2296.3</ele>
        <time>2017-03-24T11:54:47Z</time>
      </trkpt>
      <trkpt lat="42.82126" lon="-0.51312">
        <ele>2295.8</ele>
        <time>2017-03-24T11:55:15Z</time>
      </trkpt>
      <trkpt lat="42.82126" lon="-0.51311">
        <ele>2296.3</ele>
        <time>2017-03-24T11:56:10Z</time>
      </trkpt>
      <trkpt lat="42.82127" lon="-0.51312">
        <ele>2296.3</ele>
        <time>2017-03-24T11:58:26Z</time>
      </trkpt>
      <trkpt lat="42.82127" lon="-0.51312">
        <ele>2295.8</ele>
        <time>2017-03-24T11:59:06Z</time>
      </trkpt>
      <trkpt lat="42.82127" lon="-0.51311">
        <ele>2296.3</ele>
        <time>2017-03-24T11:59:24Z</time>
      </trkpt>
      <trkpt lat="42.82129" lon="-0.51314">
        <ele>2295.8</ele>
        <time>2017-03-24T11:59:54Z</time>
      </trkpt>
      <trkpt lat="42.82126" lon="-0.51311">
        <ele>2295.8</ele>
        <time>2017-03-24T12:01:37Z</time>
      </trkpt>
      <trkpt lat="42.82127" lon="-0.51311">
        <ele>2296.3</ele>
        <time>2017-03-24T12:02:32Z</time>
      </trkpt>
      <trkpt lat="42.82127" lon="-0.5131">
        <ele>2296.3</ele>
        <time>2017-03-24T12:03:02Z</time>
      </trkpt>
      <trkpt lat="42.82127" lon="-0.51311">
        <ele>2294.8</ele>
        <time>2017-03-24T12:03:44Z</time>
      </trkpt>
      <trkpt lat="42.82127" lon="-0.51311">
        <ele>2294.8</ele>
        <time>2017-03-24T12:04:31Z</time>
      </trkpt>
      <trkpt lat="42.82127" lon="-0.51312">
        <ele>2290</ele>
        <time>2017-03-24T12:04:43Z</time>
      </trkpt>
      <trkpt lat="42.82125" lon="-0.5131">
        <ele>2295.3</ele>
        <time>2017-03-24T12:05:13Z</time>
      </trkpt>
      <trkpt lat="42.82021" lon="-0.51329">
        <ele>2263.1</ele>
        <time>2017-03-24T12:10:47Z</time>
      </trkpt>
      <trkpt lat="42.81844" lon="-0.51524">
        <ele>2236.6</ele>
        <time>2017-03-24T12:23:57Z</time>
      </trkpt>
      <trkpt lat="42.8184" lon="-0.51514">
        <ele>2234.2</ele>
        <time>2017-03-24T12:24:17Z</time>
      </trkpt>
      <trkpt lat="42.81839" lon="-0.51538">
        <ele>2229.4</ele>
        <time>2017-03-24T12:25:05Z</time>
      </trkpt>
      <trkpt lat="42.81839" lon="-0.51537">
        <ele>2226.6</ele>
        <time>2017-03-24T12:25:19Z</time>
      </trkpt>
      <trkpt lat="42.81765" lon="-0.51793">
        <ele>2232.3</ele>
        <time>2017-03-24T12:37:38Z</time>
      </trkpt>
      <trkpt lat="42.8176" lon="-0.51822">
        <ele>2238.6</ele>
        <time>2017-03-24T12:40:25Z</time>
      </trkpt>
      <trkpt lat="42.8176" lon="-0.5182">
        <ele>2241</ele>
        <time>2017-03-24T12:40:43Z</time>
      </trkpt>
      <trkpt lat="42.81729" lon="-0.51866">
        <ele>2266.9</ele>
        <time>2017-03-24T12:45:39Z</time>
      </trkpt>
      <trkpt lat="42.8171" lon="-0.51878">
        <ele>2268.4</ele>
        <time>2017-03-24T12:46:35Z</time>
      </trkpt>
      <trkpt lat="42.81717" lon="-0.51872">
        <ele>2270.3</ele>
        <time>2017-03-24T12:47:20Z</time>
      </trkpt>
      <trkpt lat="42.81713" lon="-0.51877">
        <ele>2269.3</ele>
        <time>2017-03-24T12:47:32Z</time>
      </trkpt>
      <trkpt lat="42.81709" lon="-0.51874">
        <ele>2267.4</ele>
        <time>2017-03-24T12:47:53Z</time>
      </trkpt>
      <trkpt lat="42.81711" lon="-0.51874">
        <ele>2266</ele>
        <time>2017-03-24T12:48:11Z</time>
      </trkpt>
      <trkpt lat="42.81707" lon="-0.51875">
        <ele>2264.5</ele>
        <time>2017-03-24T12:48:34Z</time>
      </trkpt>
      <trkpt lat="42.81709" lon="-0.51876">
        <ele>2264</ele>
        <time>2017-03-24T12:49:00Z</time>
      </trkpt>
      <trkpt lat="42.81706" lon="-0.51879">
        <ele>2262.6</ele>
        <time>2017-03-24T12:49:24Z</time>
      </trkpt>
      <trkpt lat="42.81705" lon="-0.51878">
        <ele>2262.6</ele>
        <time>2017-03-24T12:49:49Z</time>
      </trkpt>
      <trkpt lat="42.81705" lon="-0.5188">
        <ele>2262.1</ele>
        <time>2017-03-24T12:50:09Z</time>
      </trkpt>
      <trkpt lat="42.81681" lon="-0.51883">
        <ele>2261.6</ele>
        <time>2017-03-24T12:52:07Z</time>
      </trkpt>
      <trkpt lat="42.81683" lon="-0.51879">
        <ele>2261.2</ele>
        <time>2017-03-24T12:52:30Z</time>
      </trkpt>
      <trkpt lat="42.81576" lon="-0.5195">
        <ele>2242.9</ele>
        <time>2017-03-24T12:58:31Z</time>
      </trkpt>
      <trkpt lat="42.81575" lon="-0.51949">
        <ele>2242.4</ele>
        <time>2017-03-24T12:58:33Z</time>
      </trkpt>
      <trkpt lat="42.81451" lon="-0.52198">
        <ele>2153.5</ele>
        <time>2017-03-24T13:04:41Z</time>
      </trkpt>
      <trkpt lat="42.81451" lon="-0.52197">
        <ele>2154.5</ele>
        <time>2017-03-24T13:05:08Z</time>
      </trkpt>
      <trkpt lat="42.81448" lon="-0.52209">
        <ele>2154.5</ele>
        <time>2017-03-24T13:05:54Z</time>
      </trkpt>
      <trkpt lat="42.81323" lon="-0.52194">
        <ele>2107.8</ele>
        <time>2017-03-24T13:08:30Z</time>
      </trkpt>
      <trkpt lat="42.81324" lon="-0.52196">
        <ele>2108.3</ele>
        <time>2017-03-24T13:08:53Z</time>
      </trkpt>
      <trkpt lat="42.81323" lon="-0.52194">
        <ele>2108.3</ele>
        <time>2017-03-24T13:09:19Z</time>
      </trkpt>
      <trkpt lat="42.81323" lon="-0.52194">
        <ele>2108.8</ele>
        <time>2017-03-24T13:09:46Z</time>
      </trkpt>
      <trkpt lat="42.81323" lon="-0.52193">
        <ele>2108.3</ele>
        <time>2017-03-24T13:10:09Z</time>
      </trkpt>
      <trkpt lat="42.81323" lon="-0.52193">
        <ele>2108.8</ele>
        <time>2017-03-24T13:10:32Z</time>
      </trkpt>
      <trkpt lat="42.81323" lon="-0.52193">
        <ele>2109.3</ele>
        <time>2017-03-24T13:10:59Z</time>
      </trkpt>
      <trkpt lat="42.81321" lon="-0.52192">
        <ele>2108.3</ele>
        <time>2017-03-24T13:13:32Z</time>
      </trkpt>
      <trkpt lat="42.81322" lon="-0.52193">
        <ele>2104.5</ele>
        <time>2017-03-24T13:13:50Z</time>
      </trkpt>
      <trkpt lat="42.81322" lon="-0.52193">
        <ele>2108.8</ele>
        <time>2017-03-24T13:13:59Z</time>
      </trkpt>
      <trkpt lat="42.81322" lon="-0.52193">
        <ele>2104.9</ele>
        <time>2017-03-24T13:14:07Z</time>
      </trkpt>
      <trkpt lat="42.81322" lon="-0.52193">
        <ele>2104.9</ele>
        <time>2017-03-24T13:14:08Z</time>
      </trkpt>
      <trkpt lat="42.81324" lon="-0.52195">
        <ele>2108.3</ele>
        <time>2017-03-24T13:14:15Z</time>
      </trkpt>
      <trkpt lat="42.81323" lon="-0.52193">
        <ele>2108.8</ele>
        <time>2017-03-24T13:14:42Z</time>
      </trkpt>
      <trkpt lat="42.81322" lon="-0.52196">
        <ele>2107.8</ele>
        <time>2017-03-24T13:15:25Z</time>
      </trkpt>
      <trkpt lat="42.81324" lon="-0.52194">
        <ele>2108.3</ele>
        <time>2017-03-24T13:15:54Z</time>
      </trkpt>
      <trkpt lat="42.81322" lon="-0.52195">
        <ele>2110.2</ele>
        <time>2017-03-24T13:16:21Z</time>
      </trkpt>
      <trkpt lat="42.81322" lon="-0.52195">
        <ele>2108.3</ele>
        <time>2017-03-24T13:16:24Z</time>
      </trkpt>
      <trkpt lat="42.81264" lon="-0.52497">
        <ele>2070.8</ele>
        <time>2017-03-24T13:19:29Z</time>
      </trkpt>
      <trkpt lat="42.81265" lon="-0.52498">
        <ele>2071.3</ele>
        <time>2017-03-24T13:19:51Z</time>
      </trkpt>
      <trkpt lat="42.81263" lon="-0.52498">
        <ele>2071.3</ele>
        <time>2017-03-24T13:20:19Z</time>
      </trkpt>
      <trkpt lat="42.81265" lon="-0.52497">
        <ele>2071.3</ele>
        <time>2017-03-24T13:20:52Z</time>
      </trkpt>
      <trkpt lat="42.81265" lon="-0.52499">
        <ele>2071.3</ele>
        <time>2017-03-24T13:21:18Z</time>
      </trkpt>
      <trkpt lat="42.81266" lon="-0.52499">
        <ele>2071.8</ele>
        <time>2017-03-24T13:21:50Z</time>
      </trkpt>
      <trkpt lat="42.81264" lon="-0.52501">
        <ele>2071.3</ele>
        <time>2017-03-24T13:22:13Z</time>
      </trkpt>
      <trkpt lat="42.81263" lon="-0.525">
        <ele>2071.3</ele>
        <time>2017-03-24T13:22:38Z</time>
      </trkpt>
      <trkpt lat="42.81264" lon="-0.525">
        <ele>2071.3</ele>
        <time>2017-03-24T13:23:09Z</time>
      </trkpt>
      <trkpt lat="42.81264" lon="-0.52499">
        <ele>2071.8</ele>
        <time>2017-03-24T13:23:37Z</time>
      </trkpt>
      <trkpt lat="42.81265" lon="-0.52499">
        <ele>2072.3</ele>
        <time>2017-03-24T13:23:59Z</time>
      </trkpt>
      <trkpt lat="42.81265" lon="-0.52499">
        <ele>2071.8</ele>
        <time>2017-03-24T13:24:21Z</time>
      </trkpt>
      <trkpt lat="42.81265" lon="-0.52499">
        <ele>2071.8</ele>
        <time>2017-03-24T13:24:48Z</time>
      </trkpt>
      <trkpt lat="42.81269" lon="-0.52674">
        <ele>2055</ele>
        <time>2017-03-24T13:26:27Z</time>
      </trkpt>
      <trkpt lat="42.81187" lon="-0.52665">
        <ele>2049.2</ele>
        <time>2017-03-24T13:33:39Z</time>
      </trkpt>
      <trkpt lat="42.81187" lon="-0.52665">
        <ele>2048.2</ele>
        <time>2017-03-24T13:33:52Z</time>
      </trkpt>
      <trkpt lat="42.80837" lon="-0.5291">
        <ele>2019.9</ele>
        <time>2017-03-24T13:45:41Z</time>
      </trkpt>
      <trkpt lat="42.80839" lon="-0.52913">
        <ele>2019.4</ele>
        <time>2017-03-24T13:46:09Z</time>
      </trkpt>
      <trkpt lat="42.808" lon="-0.52947">
        <ele>2002.6</ele>
        <time>2017-03-24T13:47:27Z</time>
      </trkpt>
      <trkpt lat="42.80801" lon="-0.52938">
        <ele>2002.6</ele>
        <time>2017-03-24T13:48:19Z</time>
      </trkpt>
      <trkpt lat="42.80776" lon="-0.52965">
        <ele>1997.8</ele>
        <time>2017-03-24T13:49:13Z</time>
      </trkpt>
      <trkpt lat="42.80781" lon="-0.52953">
        <ele>1993.9</ele>
        <time>2017-03-24T13:49:20Z</time>
      </trkpt>
      <trkpt lat="42.80725" lon="-0.52902">
        <ele>1963.6</ele>
        <time>2017-03-24T13:51:20Z</time>
      </trkpt>
      <trkpt lat="42.8071" lon="-0.5287">
        <ele>1949.7</ele>
        <time>2017-03-24T13:51:31Z</time>
      </trkpt>
      <trkpt lat="42.80707" lon="-0.52873">
        <ele>1946.8</ele>
        <time>2017-03-24T13:51:34Z</time>
      </trkpt>
      <trkpt lat="42.80701" lon="-0.52851">
        <ele>1944.4</ele>
        <time>2017-03-24T13:52:40Z</time>
      </trkpt>
      <trkpt lat="42.80703" lon="-0.52854">
        <ele>1944.4</ele>
        <time>2017-03-24T13:53:06Z</time>
      </trkpt>
      <trkpt lat="42.80626" lon="-0.52895">
        <ele>1911.2</ele>
        <time>2017-03-24T13:56:21Z</time>
      </trkpt>
      <trkpt lat="42.80466" lon="-0.52925">
        <ele>1875.2</ele>
        <time>2017-03-24T13:57:03Z</time>
      </trkpt>
      <trkpt lat="42.80471" lon="-0.52923">
        <ele>1876.2</ele>
        <time>2017-03-24T13:57:52Z</time>
      </trkpt>
      <trkpt lat="42.80425" lon="-0.52904">
        <ele>1848.3</ele>
        <time>2017-03-24T14:02:00Z</time>
      </trkpt>
      <trkpt lat="42.80426" lon="-0.52907">
        <ele>1848.8</ele>
        <time>2017-03-24T14:02:30Z</time>
      </trkpt>
      <trkpt lat="42.80427" lon="-0.52906">
        <ele>1849.7</ele>
        <time>2017-03-24T14:02:42Z</time>
      </trkpt>
      <trkpt lat="42.80426" lon="-0.52907">
        <ele>1849.2</ele>
        <time>2017-03-24T14:02:44Z</time>
      </trkpt>
      <trkpt lat="42.80429" lon="-0.52906">
        <ele>1849.2</ele>
        <time>2017-03-24T14:03:09Z</time>
      </trkpt>
      <trkpt lat="42.80427" lon="-0.52906">
        <ele>1849.7</ele>
        <time>2017-03-24T14:03:33Z</time>
      </trkpt>
      <trkpt lat="42.80428" lon="-0.52907">
        <ele>1850.2</ele>
        <time>2017-03-24T14:03:54Z</time>
      </trkpt>
      <trkpt lat="42.80401" lon="-0.52963">
        <ele>1828.6</ele>
        <time>2017-03-24T14:10:22Z</time>
      </trkpt>
      <trkpt lat="42.80401" lon="-0.5296">
        <ele>1829.1</ele>
        <time>2017-03-24T14:10:45Z</time>
      </trkpt>
      <trkpt lat="42.8039" lon="-0.52988">
        <ele>1822.3</ele>
        <time>2017-03-24T14:13:06Z</time>
      </trkpt>
      <trkpt lat="42.80391" lon="-0.52988">
        <ele>1821.8</ele>
        <time>2017-03-24T14:13:35Z</time>
      </trkpt>
      <trkpt lat="42.80391" lon="-0.52988">
        <ele>1821.8</ele>
        <time>2017-03-24T14:14:02Z</time>
      </trkpt>
      <trkpt lat="42.80393" lon="-0.5299">
        <ele>1821.8</ele>
        <time>2017-03-24T14:14:31Z</time>
      </trkpt>
      <trkpt lat="42.80392" lon="-0.52987">
        <ele>1823.3</ele>
        <time>2017-03-24T14:14:54Z</time>
      </trkpt>
      <trkpt lat="42.80393" lon="-0.52989">
        <ele>1830</ele>
        <time>2017-03-24T14:15:45Z</time>
      </trkpt>
      <trkpt lat="42.80392" lon="-0.52987">
        <ele>1822.8</ele>
        <time>2017-03-24T14:15:48Z</time>
      </trkpt>
      <trkpt lat="42.80395" lon="-0.52991">
        <ele>1817.5</ele>
        <time>2017-03-24T14:16:18Z</time>
      </trkpt>
      <trkpt lat="42.8039" lon="-0.52987">
        <ele>1822.3</ele>
        <time>2017-03-24T14:17:12Z</time>
      </trkpt>
      <trkpt lat="42.80391" lon="-0.52987">
        <ele>1822.3</ele>
        <time>2017-03-24T14:17:32Z</time>
      </trkpt>
      <trkpt lat="42.80392" lon="-0.52987">
        <ele>1822.8</ele>
        <time>2017-03-24T14:17:58Z</time>
      </trkpt>
      <trkpt lat="42.80388" lon="-0.52978">
        <ele>1822.3</ele>
        <time>2017-03-24T14:18:47Z</time>
      </trkpt>
      <trkpt lat="42.80401" lon="-0.5296">
        <ele>1829.5</ele>
        <time>2017-03-24T14:20:01Z</time>
      </trkpt>
      <trkpt lat="42.804" lon="-0.52962">
        <ele>1829.1</ele>
        <time>2017-03-24T14:20:32Z</time>
      </trkpt>
      <trkpt lat="42.80402" lon="-0.52963">
        <ele>1829.5</ele>
        <time>2017-03-24T14:20:51Z</time>
      </trkpt>
      <trkpt lat="42.80394" lon="-0.52951">
        <ele>1826.6</ele>
        <time>2017-03-24T14:22:08Z</time>
      </trkpt>
      <trkpt lat="42.80395" lon="-0.52952">
        <ele>1827.6</ele>
        <time>2017-03-24T14:22:34Z</time>
      </trkpt>
      <trkpt lat="42.80395" lon="-0.52952">
        <ele>1826.6</ele>
        <time>2017-03-24T14:23:01Z</time>
      </trkpt>
      <trkpt lat="42.80392" lon="-0.5295">
        <ele>1826.6</ele>
        <time>2017-03-24T14:24:03Z</time>
      </trkpt>
      <trkpt lat="42.80396" lon="-0.52951">
        <ele>1826.6</ele>
        <time>2017-03-24T14:24:23Z</time>
      </trkpt>
      <trkpt lat="42.80396" lon="-0.52935">
        <ele>1825.2</ele>
        <time>2017-03-24T14:24:43Z</time>
      </trkpt>
      <trkpt lat="42.80399" lon="-0.52935">
        <ele>1824.7</ele>
        <time>2017-03-24T14:25:08Z</time>
      </trkpt>
      <trkpt lat="42.8035" lon="-0.52865">
        <ele>1806.9</ele>
        <time>2017-03-24T14:25:47Z</time>
      </trkpt>
      <trkpt lat="42.80305" lon="-0.52867">
        <ele>1816.6</ele>
        <time>2017-03-24T14:30:17Z</time>
      </trkpt>
      <trkpt lat="42.80306" lon="-0.52865">
        <ele>1817</ele>
        <time>2017-03-24T14:30:39Z</time>
      </trkpt>
      <trkpt lat="42.80254" lon="-0.52838">
        <ele>1811.7</ele>
        <time>2017-03-24T14:31:54Z</time>
      </trkpt>
      <trkpt lat="42.80291" lon="-0.52798">
        <ele>1802.1</ele>
        <time>2017-03-24T14:32:50Z</time>
      </trkpt>
      <trkpt lat="42.80252" lon="-0.52789">
        <ele>1794.9</ele>
        <time>2017-03-24T14:33:16Z</time>
      </trkpt>
      <trkpt lat="42.80195" lon="-0.52799">
        <ele>1775.7</ele>
        <time>2017-03-24T14:34:46Z</time>
      </trkpt>
      <trkpt lat="42.80201" lon="-0.52796">
        <ele>1775.7</ele>
        <time>2017-03-24T14:35:39Z</time>
      </trkpt>
      <trkpt lat="42.80202" lon="-0.52797">
        <ele>1776.2</ele>
        <time>2017-03-24T14:36:01Z</time>
      </trkpt>
      <trkpt lat="42.80198" lon="-0.52797">
        <ele>1776.7</ele>
        <time>2017-03-24T14:36:17Z</time>
      </trkpt>
      <trkpt lat="42.80201" lon="-0.52797">
        <ele>1776.7</ele>
        <time>2017-03-24T14:36:40Z</time>
      </trkpt>
      <trkpt lat="42.802" lon="-0.52795">
        <ele>1775.2</ele>
        <time>2017-03-24T14:37:14Z</time>
      </trkpt>
      <trkpt lat="42.80199" lon="-0.52795">
        <ele>1776.7</ele>
        <time>2017-03-24T14:37:16Z</time>
      </trkpt>
      <trkpt lat="42.80201" lon="-0.52794">
        <ele>1776.2</ele>
        <time>2017-03-24T14:37:47Z</time>
      </trkpt>
      <trkpt lat="42.802" lon="-0.52796">
        <ele>1777.1</ele>
        <time>2017-03-24T14:38:12Z</time>
      </trkpt>
      <trkpt lat="42.80199" lon="-0.52793">
        <ele>1776.2</ele>
        <time>2017-03-24T14:39:02Z</time>
      </trkpt>
      <trkpt lat="42.80202" lon="-0.52799">
        <ele>1778.6</ele>
        <time>2017-03-24T14:39:38Z</time>
      </trkpt>
      <trkpt lat="42.80194" lon="-0.52791">
        <ele>1775.2</ele>
        <time>2017-03-24T14:40:23Z</time>
      </trkpt>
      <trkpt lat="42.80195" lon="-0.52787">
        <ele>1775.7</ele>
        <time>2017-03-24T14:40:48Z</time>
      </trkpt>
      <trkpt lat="42.80198" lon="-0.52788">
        <ele>1775.2</ele>
        <time>2017-03-24T14:41:21Z</time>
      </trkpt>
      <trkpt lat="42.80198" lon="-0.52784">
        <ele>1775.2</ele>
        <time>2017-03-24T14:41:42Z</time>
      </trkpt>
      <trkpt lat="42.80193" lon="-0.52781">
        <ele>1770.4</ele>
        <time>2017-03-24T14:42:17Z</time>
      </trkpt>
      <trkpt lat="42.80197" lon="-0.5278">
        <ele>1769.4</ele>
        <time>2017-03-24T14:42:36Z</time>
      </trkpt>
      <trkpt lat="42.80199" lon="-0.5279">
        <ele>1768</ele>
        <time>2017-03-24T14:44:13Z</time>
      </trkpt>
      <trkpt lat="42.80197" lon="-0.52786">
        <ele>1769</ele>
        <time>2017-03-24T14:44:48Z</time>
      </trkpt>
      <trkpt lat="42.80198" lon="-0.52787">
        <ele>1768.5</ele>
        <time>2017-03-24T14:45:20Z</time>
      </trkpt>
      <trkpt lat="42.80144" lon="-0.52752">
        <ele>1740.6</ele>
        <time>2017-03-24T14:48:37Z</time>
      </trkpt>
      <trkpt lat="42.80146" lon="-0.52753">
        <ele>1739.2</ele>
        <time>2017-03-24T14:48:41Z</time>
      </trkpt>
      <trkpt lat="42.80068" lon="-0.52591">
        <ele>1677.2</ele>
        <time>2017-03-24T14:54:00Z</time>
      </trkpt>
      <trkpt lat="42.80068" lon="-0.52599">
        <ele>1676.2</ele>
        <time>2017-03-24T14:54:17Z</time>
      </trkpt>
      <trkpt lat="42.79966" lon="-0.52518">
        <ele>1640.2</ele>
        <time>2017-03-24T14:57:46Z</time>
      </trkpt>
      <trkpt lat="42.79966" lon="-0.52518">
        <ele>1608.4</ele>
        <time>2017-03-24T15:50:29Z</time>
      </trkpt>
      <trkpt lat="42.79573" lon="-0.52492">
        <ele>1611.8</ele>
        <time>2017-03-24T15:50:53Z</time>
      </trkpt>
      <trkpt lat="42.79577" lon="-0.52492">
        <ele>1619</ele>
        <time>2017-03-24T15:51:00Z</time>
      </trkpt>
      <trkpt lat="42.79577" lon="-0.52491">
        <ele>1622.8</ele>
        <time>2017-03-24T15:51:05Z</time>
      </trkpt>
      <trkpt lat="42.79575" lon="-0.52493">
        <ele>1630.1</ele>
        <time>2017-03-24T15:51:17Z</time>
      </trkpt>
      <trkpt lat="42.79575" lon="-0.52493">
        <ele>1633.4</ele>
        <time>2017-03-24T15:51:24Z</time>
      </trkpt>
      <trkpt lat="42.79577" lon="-0.52487">
        <ele>1637.3</ele>
        <time>2017-03-24T15:51:35Z</time>
      </trkpt>
      <trkpt lat="42.79575" lon="-0.52491">
        <ele>1637.3</ele>
        <time>2017-03-24T15:51:52Z</time>
      </trkpt>
    </trkseg>
  </trk>
</gpx>